Cfl Racer — PJMV — position and weather

sailwx.info

Track history (hours):
 
Tides and Currents Weather Stations Pressure Air Temp Water Temp Dewpoint Dewpoint Depression Visibility Wind Speed Wind Dir Waves Ship Positions

Cfl Racer

Last reported at 2015-Jul-31 07:29 UTC. Time now 2015-Jul-31 09:27 UTC.
Position N 54°10' E 009°26'.

Length 83 m; draft 4.8 m.

Type: Cargo ship. MMSI: 306762000.

Date/timePositionNaut miles runAvg speedWind from/ knotsBaromVisibWave heightAir tempDewpointWater temp
2015-Jul-31 07:29N 54°10' E 009°26'5 5.4
2015-Jul-31 06:33N 54°12' E 009°34'4 3.9
2015-Jul-31 05:28N 54°16' E 009°37'6 6.4
2015-Jul-31 04:33N 54°20' E 009°44'7 7.4
2015-Jul-31 03:33N 54°20' E 009°57'4 4.1
2015-Jul-31 02:34N 54°22' E 010°04'3 3.4
2015-Jul-31 01:33N 54°22' E 010°09'8 8.4
2015-Jul-31 00:33N 54°29' E 010°16'9 9.3
2015-Jul-30 23:34N 54°33' E 010°31'17 8.6
2015-Jul-30 21:33N 54°36' E 011°00'8 7.7
2015-Jul-30 20:33N 54°35' E 011°14'8 7.6
2015-Jul-30 19:33N 54°32' E 011°25'8 7.9
2015-Jul-30 18:33N 54°29' E 011°38'8 8.1
2015-Jul-30 17:33N 54°27' E 011°51'8 8.0
2015-Jul-30 16:33N 54°27' E 012°05'91 6.5
2015-Jul-30 02:33N 53°46' E 014°24'1010.0
2015-Jul-30 01:33N 53°38' E 014°35'9 9.2
2015-Jul-30 00:34N 53°29' E 014°37'4 4.1
2015-Jul-29 23:33N 53°25' E 014°37'0 0.0
2015-Jul-29 22:27N 53°25' E 014°37'0 0.0
2015-Jul-29 20:30N 53°25' E 014°37'0 0.0
2015-Jul-29 19:33N 53°25' E 014°37'0 0.0
2015-Jul-29 18:33N 53°25' E 014°37'0 0.0
2015-Jul-29 17:24N 53°25' E 014°37'0 0.0
2015-Jul-29 16:28N 53°25' E 014°37'0 0.0
2015-Jul-29 15:31N 53°25' E 014°37'0 0.0
2015-Jul-29 14:31N 53°25' E 014°37'0 0.0
2015-Jul-29 13:34N 53°25' E 014°37'0 0.0
2015-Jul-29 12:28N 53°25' E 014°37'0 0.0
2015-Jul-29 10:27N 53°25' E 014°37'0 0.0
2015-Jul-29 09:34N 53°25' E 014°37'0 0.0
2015-Jul-29 08:34N 53°25' E 014°37'0 0.0
2015-Jul-29 07:33N 53°25' E 014°37'0 0.0
2015-Jul-29 06:33N 53°25' E 014°37'0 0.0
2015-Jul-29 05:33N 53°25' E 014°37'0 0.0
2015-Jul-29 04:34N 53°25' E 014°37'0 0.0
2015-Jul-29 03:33N 53°25' E 014°37'0 0.0
2015-Jul-29 02:33N 53°25' E 014°37'0 0.0
2015-Jul-29 01:33N 53°25' E 014°37'0 0.0
2015-Jul-29 00:33N 53°25' E 014°37'0 0.1
2015-Jul-28 23:33N 53°24' E 014°37'0 0.1
2015-Jul-28 22:33N 53°24' E 014°37'0 0.0
2015-Jul-28 21:33N 53°24' E 014°37'0 0.0
2015-Jul-28 20:34N 53°24' E 014°37'0 0.0
2015-Jul-28 19:33N 53°24' E 014°37'0 0.0
2015-Jul-28 18:33N 53°24' E 014°37'0 0.0
2015-Jul-28 17:33N 53°24' E 014°37'0 0.0
2015-Jul-28 16:33N 53°24' E 014°37'0 0.0
2015-Jul-28 15:30N 53°24' E 014°37'0 0.0
2015-Jul-28 14:33N 53°24' E 014°37'0 0.0
2015-Jul-28 13:33N 53°24' E 014°37'0 0.0
2015-Jul-28 12:33N 53°24' E 014°37'0 0.0
2015-Jul-28 11:33N 53°24' E 014°37'0 0.0
2015-Jul-28 10:33N 53°24' E 014°37'0 0.0
2015-Jul-28 09:33N 53°24' E 014°37'0 0.0
2015-Jul-28 08:33N 53°24' E 014°37'0 0.0
2015-Jul-28 07:33N 53°24' E 014°37'0 0.0
2015-Jul-28 06:33N 53°24' E 014°37'0 0.0
2015-Jul-28 05:33N 53°24' E 014°37'0 0.0
2015-Jul-28 04:33N 53°24' E 014°37'0 0.0
2015-Jul-28 03:33N 53°24' E 014°37'0 0.0
2015-Jul-28 02:33N 53°24' E 014°37'0 0.0
2015-Jul-28 01:33N 53°24' E 014°37'0 0.0
2015-Jul-28 00:33N 53°24' E 014°37'0 0.0
2015-Jul-27 23:33N 53°24' E 014°37'0 0.0
2015-Jul-27 22:33N 53°24' E 014°37'0 0.0
2015-Jul-27 21:33N 53°24' E 014°37'0 0.0
2015-Jul-27 20:33N 53°24' E 014°37'0 0.0
2015-Jul-27 19:33N 53°24' E 014°37'0 0.0
2015-Jul-27 18:33N 53°24' E 014°37'0 0.0
2015-Jul-27 17:33N 53°24' E 014°37'0 0.0
2015-Jul-27 16:33N 53°24' E 014°37'0 0.0
2015-Jul-27 15:33N 53°24' E 014°37'0 0.0
2015-Jul-27 14:33N 53°24' E 014°37'0 0.0
2015-Jul-27 13:33N 53°24' E 014°37'0 0.0
2015-Jul-27 12:33N 53°24' E 014°37'0 0.0
2015-Jul-27 11:30N 53°24' E 014°37'0 0.0
2015-Jul-27 10:33N 53°24' E 014°37'0 0.0
2015-Jul-27 09:33N 53°24' E 014°37'0 0.0
2015-Jul-27 08:33N 53°24' E 014°37'0 0.0
2015-Jul-27 07:33N 53°24' E 014°37'0 0.0
2015-Jul-27 06:33N 53°24' E 014°37'0 0.0
2015-Jul-27 05:33N 53°24' E 014°37'0 0.0
2015-Jul-27 04:33N 53°24' E 014°37'0 0.0
2015-Jul-27 03:33N 53°24' E 014°37'0 0.0
2015-Jul-27 02:33N 53°24' E 014°37'0 0.0
2015-Jul-27 01:33N 53°24' E 014°37'0 0.0
2015-Jul-27 00:33N 53°24' E 014°37'0 0.0
2015-Jul-26 23:33N 53°24' E 014°37'0 0.0
2015-Jul-26 22:33N 53°24' E 014°37'0 0.0
2015-Jul-26 21:33N 53°24' E 014°37'0 0.0
2015-Jul-26 20:33N 53°24' E 014°37'0 0.0
2015-Jul-26 19:33N 53°24' E 014°37'0 0.0
2015-Jul-26 18:33N 53°24' E 014°37'0 0.0
2015-Jul-26 17:33N 53°24' E 014°37'0 0.0
2015-Jul-26 16:33N 53°24' E 014°37'0 0.0
2015-Jul-26 15:33N 53°24' E 014°37'0 0.0
2015-Jul-26 14:33N 53°24' E 014°37'0 0.0
2015-Jul-26 13:33N 53°24' E 014°37'0 0.0
2015-Jul-26 12:33N 53°24' E 014°37'0 0.0
2015-Jul-26 11:33N 53°24' E 014°37'0 0.0
2015-Jul-26 10:33N 53°24' E 014°37'0 0.0
2015-Jul-26 09:33N 53°24' E 014°37'0 0.0
2015-Jul-26 08:30N 53°24' E 014°37'0 0.0
2015-Jul-26 07:33N 53°24' E 014°37'0 0.0
2015-Jul-26 06:33N 53°24' E 014°37'0 0.0
2015-Jul-26 05:33N 53°24' E 014°37'0 0.0
2015-Jul-26 04:33N 53°24' E 014°37'0 0.0
2015-Jul-26 03:33N 53°24' E 014°37'0 0.0
2015-Jul-26 02:33N 53°24' E 014°37'0 0.0
2015-Jul-26 01:33N 53°24' E 014°37'0 0.0
2015-Jul-26 00:33N 53°24' E 014°37'0 0.0
2015-Jul-25 23:33N 53°24' E 014°37'0 0.0
2015-Jul-25 22:33N 53°24' E 014°37'0 0.0
2015-Jul-25 21:33N 53°24' E 014°37'0 0.0
2015-Jul-25 20:30N 53°24' E 014°37'0 0.0
2015-Jul-25 19:33N 53°24' E 014°37'0 0.0
2015-Jul-25 18:33N 53°24' E 014°37'0 0.0
2015-Jul-25 17:33N 53°24' E 014°37'0 0.0
2015-Jul-25 16:33N 53°24' E 014°37'0 0.0
2015-Jul-25 15:33N 53°24' E 014°37'0 0.0
2015-Jul-25 14:33N 53°24' E 014°37'0 0.0
2015-Jul-25 13:33N 53°24' E 014°37'0 0.0
2015-Jul-25 12:33N 53°24' E 014°37'0 0.0
2015-Jul-25 11:30N 53°24' E 014°37'0 0.0
2015-Jul-25 10:33N 53°24' E 014°37'0 0.0
2015-Jul-25 09:33N 53°24' E 014°37'0 0.0
2015-Jul-25 08:33N 53°24' E 014°37'0 0.0
2015-Jul-25 07:33N 53°24' E 014°37'0 0.0
2015-Jul-25 06:33N 53°24' E 014°37'0 0.0
2015-Jul-25 05:33N 53°24' E 014°37'0 0.0
2015-Jul-25 04:33N 53°24' E 014°37'0 0.0
2015-Jul-25 03:30N 53°24' E 014°37'0 0.0
2015-Jul-25 02:33N 53°24' E 014°37'0 0.0
2015-Jul-25 01:33N 53°24' E 014°37'0 0.0
2015-Jul-25 00:33N 53°24' E 014°37'0 0.0
2015-Jul-24 23:33N 53°24' E 014°37'0 0.0
2015-Jul-24 22:33N 53°24' E 014°37'0 0.0
2015-Jul-24 21:33N 53°24' E 014°37'0 0.0
2015-Jul-24 20:33N 53°24' E 014°37'0 0.0
2015-Jul-24 19:33N 53°24' E 014°37'0 0.0
2015-Jul-24 18:33N 53°24' E 014°37'0 0.0
2015-Jul-24 17:30N 53°24' E 014°37'0 0.0
2015-Jul-24 16:33N 53°24' E 014°37'0 0.0
2015-Jul-24 15:33N 53°24' E 014°37'0 0.0
2015-Jul-24 14:33N 53°24' E 014°37'0 0.0
2015-Jul-24 13:33N 53°24' E 014°37'0 0.0
2015-Jul-24 12:33N 53°24' E 014°37'0 0.0
2015-Jul-24 11:33N 53°24' E 014°37'0 0.0
2015-Jul-24 10:33N 53°24' E 014°37'0 0.1
2015-Jul-24 09:31N 53°24' E 014°37'0 0.0
2015-Jul-24 08:31N 53°24' E 014°37'0 0.0
2015-Jul-24 07:31N 53°24' E 014°37'0 0.0
2015-Jul-24 06:31N 53°24' E 014°37'0 0.0
2015-Jul-24 05:31N 53°24' E 014°37'0 0.0
2015-Jul-24 04:31N 53°24' E 014°37'0 0.0
2015-Jul-24 03:31N 53°24' E 014°37'0 0.0
2015-Jul-24 02:31N 53°24' E 014°37'0 0.0
2015-Jul-24 01:31N 53°24' E 014°37'0 0.0
2015-Jul-24 00:31N 53°24' E 014°37'0 0.0
2015-Jul-23 23:31N 53°24' E 014°37'0 0.0
2015-Jul-23 22:31N 53°24' E 014°37'0 0.0
2015-Jul-23 21:31N 53°24' E 014°37'0 0.0
2015-Jul-23 20:31N 53°24' E 014°37'0 0.0
2015-Jul-23 19:31N 53°24' E 014°37'0 0.0
2015-Jul-23 18:31N 53°24' E 014°37'0 0.0
2015-Jul-23 17:31N 53°24' E 014°37'0 0.0
2015-Jul-23 16:31N 53°24' E 014°37'0 0.0
2015-Jul-23 15:31N 53°24' E 014°37'0 0.0
2015-Jul-23 14:31N 53°24' E 014°37'0 0.0
2015-Jul-23 13:31N 53°24' E 014°37'0 0.0
2015-Jul-23 12:31N 53°24' E 014°37'0 0.0
2015-Jul-23 11:31N 53°24' E 014°37'0 0.0
2015-Jul-23 10:31N 53°24' E 014°37'0 0.0
2015-Jul-23 09:31N 53°24' E 014°37'0 0.0
2015-Jul-23 08:31N 53°24' E 014°37'0 0.0
2015-Jul-23 07:31N 53°24' E 014°37'0 0.0
2015-Jul-23 06:31N 53°24' E 014°37'0 0.0
2015-Jul-23 05:31N 53°24' E 014°37'0 0.0
2015-Jul-23 04:31N 53°24' E 014°37'0 0.0
2015-Jul-23 03:31N 53°24' E 014°37'0 0.0
2015-Jul-23 02:31N 53°24' E 014°37'0 0.0
2015-Jul-23 01:31N 53°24' E 014°37'0 0.0
2015-Jul-23 00:31N 53°24' E 014°37'0 0.0
2015-Jul-22 23:31N 53°24' E 014°37'0 0.0
2015-Jul-22 22:31N 53°24' E 014°37'4 4.3
2015-Jul-22 21:34N 53°28' E 014°36'9 8.9
2015-Jul-22 20:34N 53°37' E 014°35'1110.3
2015-Jul-22 19:32N 53°46' E 014°24'87 7.8
2015-Jul-22 08:22N 54°30' E 012°16'8 9.7
2015-Jul-22 07:33N 54°25' E 012°07'1110.6
2015-Jul-22 06:33N 54°24' E 011°49'1110.6
2015-Jul-22 05:34N 54°28' E 011°32'1110.6
2015-Jul-22 04:33N 54°33' E 011°16'1010.1
2015-Jul-22 03:33N 54°34' E 010°58'1110.9
2015-Jul-22 02:34N 54°33' E 010°40'1110.6
2015-Jul-22 01:34N 54°30' E 010°22'10 9.9
2015-Jul-22 00:34N 54°23' E 010°11'2 2.1
2015-Jul-21 23:34N 54°22' E 010°08'6 5.7
2015-Jul-21 22:33N 54°21' E 009°58'8 7.9
2015-Jul-21 21:33N 54°20' E 009°45'8 7.6
2015-Jul-21 20:33N 54°14' E 009°37'8 7.3
2015-Jul-21 19:30N 54°10' E 009°26'7 7.9
2015-Jul-21 18:33N 54°04' E 009°19'9 8.8
2015-Jul-21 17:33N 53°56' E 009°12'4 4.2
2015-Jul-21 16:33N 53°53' E 009°07'3 2.6
2015-Jul-21 15:33N 53°52' E 009°03'1211.6
2015-Jul-21 14:34N 53°52' E 008°43'1111.4
2015-Jul-21 13:34N 53°59' E 008°27'1211.7
2015-Jul-21 12:33N 53°59' E 008°08'1111.4
2015-Jul-21 11:33N 53°57' E 007°49'1211.8
2015-Jul-21 10:34N 53°54' E 007°29'1211.7
2015-Jul-21 09:32N 53°51' E 007°10'  
Track history (hours):
 
Tides and Currents Weather Stations Pressure Air Temp Water Temp Dewpoint Dewpoint Depression Visibility Wind Speed Wind Dir Waves Ship Positions

Cfl Racer

Last reported at 2015-Jul-31 07:29 UTC. Time now 2015-Jul-31 09:27 UTC.
Position N 54°10' E 009°26'.

Length 83 m; draft 4.8 m.

Type: Cargo ship. MMSI: 306762000.

Date/timePositionNaut miles runAvg speedWind from/ knotsBaromVisibWave heightAir tempDewpointWater temp
2015-Jul-31 07:29N 54°10' E 009°26'5 5.4
2015-Jul-31 06:33N 54°12' E 009°34'4 3.9
2015-Jul-31 05:28N 54°16' E 009°37'6 6.4
2015-Jul-31 04:33N 54°20' E 009°44'7 7.4
2015-Jul-31 03:33N 54°20' E 009°57'4 4.1
2015-Jul-31 02:34N 54°22' E 010°04'3 3.4
2015-Jul-31 01:33N 54°22' E 010°09'8 8.4
2015-Jul-31 00:33N 54°29' E 010°16'9 9.3
2015-Jul-30 23:34N 54°33' E 010°31'17 8.6
2015-Jul-30 21:33N 54°36' E 011°00'8 7.7
2015-Jul-30 20:33N 54°35' E 011°14'8 7.6
2015-Jul-30 19:33N 54°32' E 011°25'8 7.9
2015-Jul-30 18:33N 54°29' E 011°38'8 8.1
2015-Jul-30 17:33N 54°27' E 011°51'8 8.0
2015-Jul-30 16:33N 54°27' E 012°05'91 6.5
2015-Jul-30 02:33N 53°46' E 014°24'1010.0
2015-Jul-30 01:33N 53°38' E 014°35'9 9.2
2015-Jul-30 00:34N 53°29' E 014°37'4 4.1
2015-Jul-29 23:33N 53°25' E 014°37'0 0.0
2015-Jul-29 22:27N 53°25' E 014°37'0 0.0
2015-Jul-29 20:30N 53°25' E 014°37'0 0.0
2015-Jul-29 19:33N 53°25' E 014°37'0 0.0
2015-Jul-29 18:33N 53°25' E 014°37'0 0.0
2015-Jul-29 17:24N 53°25' E 014°37'0 0.0
2015-Jul-29 16:28N 53°25' E 014°37'0 0.0
2015-Jul-29 15:31N 53°25' E 014°37'0 0.0
2015-Jul-29 14:31N 53°25' E 014°37'0 0.0
2015-Jul-29 13:34N 53°25' E 014°37'0 0.0
2015-Jul-29 12:28N 53°25' E 014°37'0 0.0
2015-Jul-29 10:27N 53°25' E 014°37'0 0.0
2015-Jul-29 09:34N 53°25' E 014°37'0 0.0
2015-Jul-29 08:34N 53°25' E 014°37'0 0.0
2015-Jul-29 07:33N 53°25' E 014°37'0 0.0
2015-Jul-29 06:33N 53°25' E 014°37'0 0.0
2015-Jul-29 05:33N 53°25' E 014°37'0 0.0
2015-Jul-29 04:34N 53°25' E 014°37'0 0.0
2015-Jul-29 03:33N 53°25' E 014°37'0 0.0
2015-Jul-29 02:33N 53°25' E 014°37'0 0.0
2015-Jul-29 01:33N 53°25' E 014°37'0 0.0
2015-Jul-29 00:33N 53°25' E 014°37'0 0.1
2015-Jul-28 23:33N 53°24' E 014°37'0 0.1
2015-Jul-28 22:33N 53°24' E 014°37'0 0.0
2015-Jul-28 21:33N 53°24' E 014°37'0 0.0
2015-Jul-28 20:34N 53°24' E 014°37'0 0.0
2015-Jul-28 19:33N 53°24' E 014°37'0 0.0
2015-Jul-28 18:33N 53°24' E 014°37'0 0.0
2015-Jul-28 17:33N 53°24' E 014°37'0 0.0
2015-Jul-28 16:33N 53°24' E 014°37'0 0.0
2015-Jul-28 15:30N 53°24' E 014°37'0 0.0
2015-Jul-28 14:33N 53°24' E 014°37'0 0.0
2015-Jul-28 13:33N 53°24' E 014°37'0 0.0
2015-Jul-28 12:33N 53°24' E 014°37'0 0.0
2015-Jul-28 11:33N 53°24' E 014°37'0 0.0
2015-Jul-28 10:33N 53°24' E 014°37'0 0.0
2015-Jul-28 09:33N 53°24' E 014°37'0 0.0
2015-Jul-28 08:33N 53°24' E 014°37'0 0.0
2015-Jul-28 07:33N 53°24' E 014°37'0 0.0
2015-Jul-28 06:33N 53°24' E 014°37'0 0.0
2015-Jul-28 05:33N 53°24' E 014°37'0 0.0
2015-Jul-28 04:33N 53°24' E 014°37'0 0.0
2015-Jul-28 03:33N 53°24' E 014°37'0 0.0
2015-Jul-28 02:33N 53°24' E 014°37'0 0.0
2015-Jul-28 01:33N 53°24' E 014°37'0 0.0
2015-Jul-28 00:33N 53°24' E 014°37'0 0.0
2015-Jul-27 23:33N 53°24' E 014°37'0 0.0
2015-Jul-27 22:33N 53°24' E 014°37'0 0.0
2015-Jul-27 21:33N 53°24' E 014°37'0 0.0
2015-Jul-27 20:33N 53°24' E 014°37'0 0.0
2015-Jul-27 19:33N 53°24' E 014°37'0 0.0
2015-Jul-27 18:33N 53°24' E 014°37'0 0.0
2015-Jul-27 17:33N 53°24' E 014°37'0 0.0
2015-Jul-27 16:33N 53°24' E 014°37'0 0.0
2015-Jul-27 15:33N 53°24' E 014°37'0 0.0
2015-Jul-27 14:33N 53°24' E 014°37'0 0.0
2015-Jul-27 13:33N 53°24' E 014°37'0 0.0
2015-Jul-27 12:33N 53°24' E 014°37'0 0.0
2015-Jul-27 11:30N 53°24' E 014°37'0 0.0
2015-Jul-27 10:33N 53°24' E 014°37'0 0.0
2015-Jul-27 09:33N 53°24' E 014°37'0 0.0
2015-Jul-27 08:33N 53°24' E 014°37'0 0.0
2015-Jul-27 07:33N 53°24' E 014°37'0 0.0
2015-Jul-27 06:33N 53°24' E 014°37'0 0.0
2015-Jul-27 05:33N 53°24' E 014°37'0 0.0
2015-Jul-27 04:33N 53°24' E 014°37'0 0.0
2015-Jul-27 03:33N 53°24' E 014°37'0 0.0
2015-Jul-27 02:33N 53°24' E 014°37'0 0.0
2015-Jul-27 01:33N 53°24' E 014°37'0 0.0
2015-Jul-27 00:33N 53°24' E 014°37'0 0.0
2015-Jul-26 23:33N 53°24' E 014°37'0 0.0
2015-Jul-26 22:33N 53°24' E 014°37'0 0.0
2015-Jul-26 21:33N 53°24' E 014°37'0 0.0
2015-Jul-26 20:33N 53°24' E 014°37'0 0.0
2015-Jul-26 19:33N 53°24' E 014°37'0 0.0
2015-Jul-26 18:33N 53°24' E 014°37'0 0.0
2015-Jul-26 17:33N 53°24' E 014°37'0 0.0
2015-Jul-26 16:33N 53°24' E 014°37'0 0.0
2015-Jul-26 15:33N 53°24' E 014°37'0 0.0
2015-Jul-26 14:33N 53°24' E 014°37'0 0.0
2015-Jul-26 13:33N 53°24' E 014°37'0 0.0
2015-Jul-26 12:33N 53°24' E 014°37'0 0.0
2015-Jul-26 11:33N 53°24' E 014°37'0 0.0
2015-Jul-26 10:33N 53°24' E 014°37'0 0.0
2015-Jul-26 09:33N 53°24' E 014°37'0 0.0
2015-Jul-26 08:30N 53°24' E 014°37'0 0.0
2015-Jul-26 07:33N 53°24' E 014°37'0 0.0
2015-Jul-26 06:33N 53°24' E 014°37'0 0.0
2015-Jul-26 05:33N 53°24' E 014°37'0 0.0
2015-Jul-26 04:33N 53°24' E 014°37'0 0.0
2015-Jul-26 03:33N 53°24' E 014°37'0 0.0
2015-Jul-26 02:33N 53°24' E 014°37'0 0.0
2015-Jul-26 01:33N 53°24' E 014°37'0 0.0
2015-Jul-26 00:33N 53°24' E 014°37'0 0.0
2015-Jul-25 23:33N 53°24' E 014°37'0 0.0
2015-Jul-25 22:33N 53°24' E 014°37'0 0.0
2015-Jul-25 21:33N 53°24' E 014°37'0 0.0
2015-Jul-25 20:30N 53°24' E 014°37'0 0.0
2015-Jul-25 19:33N 53°24' E 014°37'0 0.0
2015-Jul-25 18:33N 53°24' E 014°37'0 0.0
2015-Jul-25 17:33N 53°24' E 014°37'0 0.0
2015-Jul-25 16:33N 53°24' E 014°37'0 0.0
2015-Jul-25 15:33N 53°24' E 014°37'0 0.0
2015-Jul-25 14:33N 53°24' E 014°37'0 0.0
2015-Jul-25 13:33N 53°24' E 014°37'0 0.0
2015-Jul-25 12:33N 53°24' E 014°37'0 0.0
2015-Jul-25 11:30N 53°24' E 014°37'0 0.0
2015-Jul-25 10:33N 53°24' E 014°37'0 0.0
2015-Jul-25 09:33N 53°24' E 014°37'0 0.0
2015-Jul-25 08:33N 53°24' E 014°37'0 0.0
2015-Jul-25 07:33N 53°24' E 014°37'0 0.0
2015-Jul-25 06:33N 53°24' E 014°37'0 0.0
2015-Jul-25 05:33N 53°24' E 014°37'0 0.0
2015-Jul-25 04:33N 53°24' E 014°37'0 0.0
2015-Jul-25 03:30N 53°24' E 014°37'0 0.0
2015-Jul-25 02:33N 53°24' E 014°37'0 0.0
2015-Jul-25 01:33N 53°24' E 014°37'0 0.0
2015-Jul-25 00:33N 53°24' E 014°37'0 0.0
2015-Jul-24 23:33N 53°24' E 014°37'0 0.0
2015-Jul-24 22:33N 53°24' E 014°37'0 0.0
2015-Jul-24 21:33N 53°24' E 014°37'0 0.0
2015-Jul-24 20:33N 53°24' E 014°37'0 0.0
2015-Jul-24 19:33N 53°24' E 014°37'0 0.0
2015-Jul-24 18:33N 53°24' E 014°37'0 0.0
2015-Jul-24 17:30N 53°24' E 014°37'0 0.0
2015-Jul-24 16:33N 53°24' E 014°37'0 0.0
2015-Jul-24 15:33N 53°24' E 014°37'0 0.0
2015-Jul-24 14:33N 53°24' E 014°37'0 0.0
2015-Jul-24 13:33N 53°24' E 014°37'0 0.0
2015-Jul-24 12:33N 53°24' E 014°37'0 0.0
2015-Jul-24 11:33N 53°24' E 014°37'0 0.0
2015-Jul-24 10:33N 53°24' E 014°37'0 0.1
2015-Jul-24 09:31N 53°24' E 014°37'0 0.0
2015-Jul-24 08:31N 53°24' E 014°37'0 0.0
2015-Jul-24 07:31N 53°24' E 014°37'0 0.0
2015-Jul-24 06:31N 53°24' E 014°37'0 0.0
2015-Jul-24 05:31N 53°24' E 014°37'0 0.0
2015-Jul-24 04:31N 53°24' E 014°37'0 0.0
2015-Jul-24 03:31N 53°24' E 014°37'0 0.0
2015-Jul-24 02:31N 53°24' E 014°37'0 0.0
2015-Jul-24 01:31N 53°24' E 014°37'0 0.0
2015-Jul-24 00:31N 53°24' E 014°37'0 0.0
2015-Jul-23 23:31N 53°24' E 014°37'0 0.0
2015-Jul-23 22:31N 53°24' E 014°37'0 0.0
2015-Jul-23 21:31N 53°24' E 014°37'0 0.0
2015-Jul-23 20:31N 53°24' E 014°37'0 0.0
2015-Jul-23 19:31N 53°24' E 014°37'0 0.0
2015-Jul-23 18:31N 53°24' E 014°37'0 0.0
2015-Jul-23 17:31N 53°24' E 014°37'0 0.0
2015-Jul-23 16:31N 53°24' E 014°37'0 0.0
2015-Jul-23 15:31N 53°24' E 014°37'0 0.0
2015-Jul-23 14:31N 53°24' E 014°37'0 0.0
2015-Jul-23 13:31N 53°24' E 014°37'0 0.0
2015-Jul-23 12:31N 53°24' E 014°37'0 0.0
2015-Jul-23 11:31N 53°24' E 014°37'0 0.0
2015-Jul-23 10:31N 53°24' E 014°37'0 0.0
2015-Jul-23 09:31N 53°24' E 014°37'0 0.0
2015-Jul-23 08:31N 53°24' E 014°37'0 0.0
2015-Jul-23 07:31N 53°24' E 014°37'0 0.0
2015-Jul-23 06:31N 53°24' E 014°37'0 0.0
2015-Jul-23 05:31N 53°24' E 014°37'0 0.0
2015-Jul-23 04:31N 53°24' E 014°37'0 0.0
2015-Jul-23 03:31N 53°24' E 014°37'0 0.0
2015-Jul-23 02:31N 53°24' E 014°37'0 0.0
2015-Jul-23 01:31N 53°24' E 014°37'0 0.0
2015-Jul-23 00:31N 53°24' E 014°37'0 0.0
2015-Jul-22 23:31N 53°24' E 014°37'0 0.0
2015-Jul-22 22:31N 53°24' E 014°37'4 4.3
2015-Jul-22 21:34N 53°28' E 014°36'9 8.9
2015-Jul-22 20:34N 53°37' E 014°35'1110.3
2015-Jul-22 19:32N 53°46' E 014°24'87 7.8
2015-Jul-22 08:22N 54°30' E 012°16'8 9.7
2015-Jul-22 07:33N 54°25' E 012°07'1110.6
2015-Jul-22 06:33N 54°24' E 011°49'1110.6
2015-Jul-22 05:34N 54°28' E 011°32'1110.6
2015-Jul-22 04:33N 54°33' E 011°16'1010.1
2015-Jul-22 03:33N 54°34' E 010°58'1110.9
2015-Jul-22 02:34N 54°33' E 010°40'1110.6
2015-Jul-22 01:34N 54°30' E 010°22'10 9.9
2015-Jul-22 00:34N 54°23' E 010°11'2 2.1
2015-Jul-21 23:34N 54°22' E 010°08'6 5.7
2015-Jul-21 22:33N 54°21' E 009°58'8 7.9
2015-Jul-21 21:33N 54°20' E 009°45'8 7.6
2015-Jul-21 20:33N 54°14' E 009°37'8 7.3
2015-Jul-21 19:30N 54°10' E 009°26'7 7.9
2015-Jul-21 18:33N 54°04' E 009°19'9 8.8
2015-Jul-21 17:33N 53°56' E 009°12'4 4.2
2015-Jul-21 16:33N 53°53' E 009°07'3 2.6
2015-Jul-21 15:33N 53°52' E 009°03'1211.6
2015-Jul-21 14:34N 53°52' E 008°43'1111.4
2015-Jul-21 13:34N 53°59' E 008°27'1211.7
2015-Jul-21 12:33N 53°59' E 008°08'1111.4
2015-Jul-21 11:33N 53°57' E 007°49'1211.8
2015-Jul-21 10:34N 53°54' E 007°29'1211.7
2015-Jul-21 09:32N 53°51' E 007°10'  

Dump ship's entire track history